Time;durP1;ratioP1;P1;durP2;ratioP2;P2;SDS_P1;SDS_P2;PMS_P1;PMS_P2;Temp;Humidity;BMP_temperature;BMP_pressure;BME280_temperature;BME280_humidity;BME280_pressure;Samples;Min_cycle;Max_cycle;Signal;HPM_P1;HPM_P2
2023/06/25 00:04:48;;;;;;;;;;;28.10;42.20;;;;;;20922559;28;19925;-65
2023/06/25 00:14:48;;;;;;;;;;;27.80;43.30;;;;;;20921699;28;19925;-64
2023/06/25 00:24:49;;;;;;;;;;;27.70;44.10;;;;;;20918833;28;19928;-65
2023/06/25 00:34:50;;;;;;;;;;;27.60;44.70;;;;;;20918960;28;20344;-65
2023/06/25 00:44:50;;;;;;;;;;;27.40;44.80;;;;;;20927257;28;20409;-65
2023/06/25 00:54:51;;;;;;;;;;;27.40;44.90;;;;;;20918568;28;19967;-65
2023/06/25 01:05:02;;;;;;;;;;;27.40;45.20;;;;;;20917585;28;19932;-65
2023/06/25 01:15:04;;;;;;;;;;;27.20;46.20;;;;;;20916597;28;19924;-64
2023/06/25 01:25:04;;;;;;;;;;;27.30;45.60;;;;;;20915985;28;19980;-65
2023/06/25 01:35:05;;;;;;;;;;;27.40;45.40;;;;;;20914789;28;19932;-65
2023/06/25 01:45:06;;;;;;;;;;;27.20;45.50;;;;;;20913852;28;19931;-64
2023/06/25 01:55:07;;;;;;;;;;;26.90;46.70;;;;;;20914382;28;19970;-64
2023/06/25 02:05:08;;;;;;;;;;;26.70;47.50;;;;;;20912756;28;19925;-66
2023/06/25 02:15:09;;;;;;;;;;;26.40;48.10;;;;;;20912112;28;19924;-64
2023/06/25 02:25:09;;;;;;;;;;;26.40;48.30;;;;;;20912136;28;20409;-65
2023/06/25 02:35:10;;;;;;;;;;;26.10;48.80;;;;;;20912547;28;19968;-65
2023/06/25 02:45:10;;;;;;;;;;;26.30;48.50;;;;;;20912192;28;19925;-65
2023/06/25 02:55:11;;;;;;;;;;;26.20;48.90;;;;;;20924364;28;19924;-65
2023/06/25 03:05:12;;;;;;;;;;;26.00;49.80;;;;;;20927003;28;19931;-65
2023/06/25 03:15:12;;;;;;;;;;;25.80;50.50;;;;;;20924923;28;19931;-65
2023/06/25 03:25:13;;;;;;;;;;;25.60;50.70;;;;;;20924729;28;19982;-65
2023/06/25 03:35:14;;;;;;;;;;;25.50;51.10;;;;;;20924261;28;19931;-65
2023/06/25 03:45:16;;;;;;;;;;;25.30;51.60;;;;;;20923639;28;20018;-64
2023/06/25 03:55:16;;;;;;;;;;;25.30;51.90;;;;;;20922959;28;19925;-64
2023/06/25 04:05:17;;;;;;;;;;;25.20;52.40;;;;;;20921177;28;19925;-64
2023/06/25 04:15:17;;;;;;;;;;;25.10;52.50;;;;;;20921774;28;19984;-64
2023/06/25 04:25:18;;;;;;;;;;;25.10;53.00;;;;;;20920382;28;19979;-65
2023/06/25 04:35:19;;;;;;;;;;;25.00;53.40;;;;;;20918673;28;20043;-64
2023/06/25 04:45:19;;;;;;;;;;;24.80;54.20;;;;;;20919108;28;20416;-64
2023/06/25 04:55:20;;;;;;;;;;;24.70;54.50;;;;;;20918232;28;19931;-64
2023/06/25 05:05:21;;;;;;;;;;;24.60;54.40;;;;;;20917820;28;19955;-64
2023/06/25 05:15:21;;;;;;;;;;;24.70;54.40;;;;;;20916613;28;19925;-64
2023/06/25 05:25:22;;;;;;;;;;;24.60;54.30;;;;;;20915882;28;19925;-65
2023/06/25 05:35:23;;;;;;;;;;;24.60;55.00;;;;;;20915913;28;20393;-65
2023/06/25 05:45:24;;;;;;;;;;;24.60;55.20;;;;;;20913801;28;19931;-65
2023/06/25 05:55:24;;;;;;;;;;;24.60;54.80;;;;;;20914652;28;20418;-65
2023/06/25 06:05:25;;;;;;;;;;;24.70;54.40;;;;;;20914137;28;19925;-65
2023/06/25 06:15:25;;;;;;;;;;;24.80;53.90;;;;;;20914158;28;20385;-64
2023/06/25 06:25:26;;;;;;;;;;;24.90;53.50;;;;;;20917382;28;19925;-65
2023/06/25 06:35:27;;;;;;;;;;;25.00;53.10;;;;;;20928097;28;20008;-64
2023/06/25 06:45:27;;;;;;;;;;;25.20;52.90;;;;;;20928508;28;20424;-65
2023/06/25 06:55:28;;;;;;;;;;;25.60;51.80;;;;;;20926409;28;20015;-65
2023/06/25 07:05:28;;;;;;;;;;;26.20;49.30;;;;;;20926743;28;19924;-64
2023/06/25 07:15:30;;;;;;;;;;;27.10;46.90;;;;;;20926296;28;19924;-65
2023/06/25 07:25:30;;;;;;;;;;;28.10;44.90;;;;;;20924388;28;20371;-64
2023/06/25 07:35:31;;;;;;;;;;;28.70;42.80;;;;;;20924122;28;19924;-64
2023/06/25 07:45:31;;;;;;;;;;;29.20;40.90;;;;;;20923071;28;19924;-65
2023/06/25 07:55:39;;;;;;;;;;;29.70;40.40;;;;;;20921576;28;19925;-65
2023/06/25 08:05:40;;;;;;;;;;;30.00;39.20;;;;;;20921413;28;19931;-64
2023/06/25 08:15:40;;;;;;;;;;;30.20;37.60;;;;;;20921232;28;19925;-65
2023/06/25 08:25:41;;;;;;;;;;;30.50;37.60;;;;;;20920022;28;19924;-66
2023/06/25 08:35:42;;;;;;;;;;;30.60;37.80;;;;;;20920087;28;19955;-65
2023/06/25 08:45:43;;;;;;;;;;;31.10;36.90;;;;;;20918232;28;19978;-65
2023/06/25 08:55:44;;;;;;;;;;;31.30;36.80;;;;;;20918004;28;20018;-65
2023/06/25 09:05:52;;;;;;;;;;;31.60;36.10;;;;;;20917092;28;20102;-66
2023/06/25 09:15:59;;;;;;;;;;;32.00;35.80;;;;;;20915791;28;19987;-65
2023/06/25 09:26:04;;;;;;;;;;;32.00;35.80;;;;;;20915149;28;19958;-65
2023/06/25 09:36:05;;;;;;;;;;;31.80;35.80;;;;;;20914950;28;19929;-64
2023/06/25 09:46:05;;;;;;;;;;;32.10;35.00;;;;;;20914426;28;19935;-63
2023/06/25 09:56:07;;;;;;;;;;;32.20;35.30;;;;;;20911713;28;20012;-63
2023/06/25 10:06:08;;;;;;;;;;;32.40;34.80;;;;;;20913091;28;19929;-64
2023/06/25 10:16:08;;;;;;;;;;;32.60;35.10;;;;;;20912623;28;20030;-63
2023/06/25 10:26:12;;;;;;;;;;;32.90;34.40;;;;;;20911440;28;19925;-63
2023/06/25 10:36:13;;;;;;;;;;;33.20;34.20;;;;;;20912049;28;19925;-62
2023/06/25 10:46:13;;;;;;;;;;;33.30;33.60;;;;;;20911682;28;19931;-63
2023/06/25 10:56:14;;;;;;;;;;;33.50;33.20;;;;;;20911103;28;19925;-63
2023/06/25 11:06:15;;;;;;;;;;;33.60;33.10;;;;;;20910291;28;19987;-63
2023/06/25 11:16:15;;;;;;;;;;;34.00;31.40;;;;;;20920302;28;19929;-64
2023/06/25 11:26:17;;;;;;;;;;;34.30;31.30;;;;;;20924559;28;20346;-64
2023/06/25 11:36:22;;;;;;;;;;;34.40;31.20;;;;;;20923836;28;20345;-64
2023/06/25 11:46:23;;;;;;;;;;;34.50;30.80;;;;;;20923626;28;19925;-63
2023/06/25 11:56:23;;;;;;;;;;;34.60;30.10;;;;;;20923035;28;19925;-62
2023/06/25 12:06:25;;;;;;;;;;;34.80;29.30;;;;;;20921965;28;19924;-62
2023/06/25 12:16:25;;;;;;;;;;;35.00;28.70;;;;;;20920967;28;19936;-63
2023/06/25 12:26:26;;;;;;;;;;;35.10;28.60;;;;;;20918551;28;19925;-62
2023/06/25 12:36:26;;;;;;;;;;;35.20;27.70;;;;;;20919487;28;20370;-62
2023/06/25 12:46:27;;;;;;;;;;;35.30;27.40;;;;;;20918393;28;19970;-63
2023/06/25 12:56:29;;;;;;;;;;;35.60;25.80;;;;;;20918256;28;19925;-62
2023/06/25 13:06:29;;;;;;;;;;;35.90;26.00;;;;;;20917113;28;19932;-63
2023/06/25 13:16:30;;;;;;;;;;;35.80;26.20;;;;;;20916932;28;19925;-62
2023/06/25 13:26:31;;;;;;;;;;;36.00;25.50;;;;;;20913921;28;19932;-63
2023/06/25 13:36:32;;;;;;;;;;;36.00;24.90;;;;;;20912726;28;20356;-63
2023/06/25 13:46:32;;;;;;;;;;;36.30;24.30;;;;;;20913792;28;20417;-62
2023/06/25 13:56:33;;;;;;;;;;;36.20;24.60;;;;;;20911782;28;20242;-62
2023/06/25 14:06:33;;;;;;;;;;;36.50;25.00;;;;;;20913448;28;19935;-62
2023/06/25 14:16:34;;;;;;;;;;;36.40;24.60;;;;;;20912609;28;19968;-63
2023/06/25 14:26:35;;;;;;;;;;;36.30;24.80;;;;;;20911843;28;19976;-62
2023/06/25 14:36:35;;;;;;;;;;;36.80;24.10;;;;;;20912207;28;20015;-64
2023/06/25 14:46:36;;;;;;;;;;;36.90;24.50;;;;;;20915582;28;19925;-63
2023/06/25 14:56:36;;;;;;;;;;;36.70;24.00;;;;;;20926661;28;20329;-63
2023/06/25 15:06:37;;;;;;;;;;;37.00;23.20;;;;;;20925637;28;19978;-63
2023/06/25 15:16:38;;;;;;;;;;;37.10;23.50;;;;;;20924361;28;19925;-63
2023/06/25 15:26:39;;;;;;;;;;;37.00;22.40;;;;;;20922834;28;19925;-63
2023/06/25 15:36:39;;;;;;;;;;;37.10;22.60;;;;;;20922588;28;19931;-63
2023/06/25 15:46:40;;;;;;;;;;;37.20;21.70;;;;;;20922180;28;20024;-63
2023/06/25 15:56:41;;;;;;;;;;;37.30;21.60;;;;;;20921585;28;19964;-64
2023/06/25 16:06:41;;;;;;;;;;;37.20;21.40;;;;;;20920717;28;19929;-63
2023/06/25 16:16:42;;;;;;;;;;;37.20;21.80;;;;;;20920405;28;19925;-64
2023/06/25 16:26:42;;;;;;;;;;;37.30;21.40;;;;;;20918836;28;19925;-65
2023/06/25 16:36:43;;;;;;;;;;;37.20;21.40;;;;;;20918605;28;19929;-63
2023/06/25 16:46:44;;;;;;;;;;;37.30;22.00;;;;;;20918913;28;19925;-64
2023/06/25 16:56:44;;;;;;;;;;;37.10;22.40;;;;;;20916256;28;19929;-64
2023/06/25 17:06:45;;;;;;;;;;;36.90;21.80;;;;;;20915157;28;20326;-64
2023/06/25 17:16:47;;;;;;;;;;;36.50;22.00;;;;;;20913681;28;20380;-64
2023/06/25 17:26:48;;;;;;;;;;;36.40;22.40;;;;;;20913400;28;19931;-63
2023/06/25 17:36:48;;;;;;;;;;;36.10;23.50;;;;;;20903616;28;19978;-63
2023/06/25 17:46:49;;;;;;;;;;;35.90;24.90;;;;;;20903699;28;19932;-64
2023/06/25 17:56:50;;;;;;;;;;;35.70;25.20;;;;;;20904223;28;19932;-64
2023/06/25 18:06:51;;;;;;;;;;;35.60;25.90;;;;;;20908360;28;20012;-64
2023/06/25 18:16:51;;;;;;;;;;;35.20;26.70;;;;;;20911243;28;20428;-64
2023/06/25 18:26:52;;;;;;;;;;;35.10;20.50;;;;;;20924812;28;19925;-64
2023/06/25 18:36:53;;;;;;;;;;;35.10;20.20;;;;;;20928309;28;19925;-63
2023/06/25 18:46:54;;;;;;;;;;;35.10;17.40;;;;;;20926615;28;19925;-64
2023/06/25 18:56:54;;;;;;;;;;;35.10;16.90;;;;;;20926691;28;19971;-64
2023/06/25 19:06:55;;;;;;;;;;;35.00;17.90;;;;;;20925717;28;20024;-64
2023/06/25 19:16:56;;;;;;;;;;;35.00;18.90;;;;;;20923485;28;19931;-63
2023/06/25 19:26:57;;;;;;;;;;;34.70;20.30;;;;;;20923342;28;19932;-63
2023/06/25 19:36:58;;;;;;;;;;;34.30;21.50;;;;;;20923414;28;19924;-63
2023/06/25 19:47:00;;;;;;;;;;;34.10;28.00;;;;;;20923626;28;20405;-63
2023/06/25 19:57:01;;;;;;;;;;;33.50;30.80;;;;;;20921221;28;19925;-64
2023/06/25 20:07:01;;;;;;;;;;;33.00;30.60;;;;;;20921319;28;20382;-66
2023/06/25 20:17:02;;;;;;;;;;;32.60;29.70;;;;;;20920573;28;19924;-64
2023/06/25 20:27:03;;;;;;;;;;;32.20;28.80;;;;;;20920510;28;20020;-63
2023/06/25 20:37:03;;;;;;;;;;;31.90;29.30;;;;;;20920864;28;19925;-63
2023/06/25 20:47:04;;;;;;;;;;;31.80;29.50;;;;;;20918447;28;19929;-64
2023/06/25 20:57:07;;;;;;;;;;;31.60;29.70;;;;;;20916541;28;21462;-63
2023/06/25 21:07:07;;;;;;;;;;;31.30;30.10;;;;;;20918230;28;19935;-63
2023/06/25 21:17:08;;;;;;;;;;;31.20;30.10;;;;;;20915982;28;19924;-64
2023/06/25 21:27:09;;;;;;;;;;;31.00;30.10;;;;;;20916645;28;19925;-63
2023/06/25 21:37:09;;;;;;;;;;;30.80;30.80;;;;;;20915725;28;20428;-63
2023/06/25 21:47:10;;;;;;;;;;;30.60;31.20;;;;;;20914721;28;19931;-63
2023/06/25 21:57:11;;;;;;;;;;;30.60;31.70;;;;;;20914078;28;19924;-64
2023/06/25 22:07:11;;;;;;;;;;;30.40;31.50;;;;;;20913907;28;19932;-64
2023/06/25 22:17:12;;;;;;;;;;;30.30;31.90;;;;;;20912389;28;20019;-64
2023/06/25 22:27:13;;;;;;;;;;;30.10;32.20;;;;;;20911897;28;19932;-64
2023/06/25 22:37:14;;;;;;;;;;;30.10;32.40;;;;;;20912637;28;19925;-63
2023/06/25 22:47:17;;;;;;;;;;;30.10;32.70;;;;;;20912451;28;19925;-64
2023/06/25 22:57:18;;;;;;;;;;;29.90;33.10;;;;;;20911900;28;20342;-63
2023/06/25 23:07:19;;;;;;;;;;;29.90;33.50;;;;;;20916505;28;19924;-64
2023/06/25 23:17:20;;;;;;;;;;;29.60;33.50;;;;;;20926748;28;19948;-64
2023/06/25 23:27:20;;;;;;;;;;;29.50;33.50;;;;;;20924988;28;19925;-65
2023/06/25 23:37:24;;;;;;;;;;;29.50;33.60;;;;;;20924185;28;19924;-64
2023/06/25 23:47:24;;;;;;;;;;;29.30;33.60;;;;;;20924456;28;20401;-63
2023/06/25 23:57:25;;;;;;;;;;;29.30;33.60;;;;;;20923900;28;19929;-63
